createdAt,value
2023-05-08T00:00:26.158Z,100.00
2023-05-08T00:02:52.908Z,100.00
2023-05-08T00:05:19.955Z,100.00
2023-05-08T00:07:46.902Z,100.00
2023-05-08T00:10:13.703Z,100.00
2023-05-08T00:12:40.678Z,100.00
2023-05-08T00:15:09.010Z,100.00
2023-05-08T00:17:38.362Z,100.00
2023-05-08T00:20:05.674Z,100.00
2023-05-08T00:22:32.766Z,100.00
2023-05-08T00:24:59.517Z,100.00
2023-05-08T00:27:26.396Z,100.00
2023-05-08T00:29:53.348Z,100.00
2023-05-08T00:32:20.231Z,100.00
2023-05-08T00:34:46.978Z,100.00
2023-05-08T00:37:13.739Z,100.00
2023-05-08T00:39:40.531Z,100.00
2023-05-08T00:42:07.360Z,100.00
2023-05-08T00:44:34.020Z,100.00
2023-05-08T00:47:00.960Z,100.00
2023-05-08T00:49:28.137Z,100.00
2023-05-08T00:51:56.137Z,100.00
2023-05-08T00:54:23.738Z,100.00
2023-05-08T00:56:52.129Z,100.00
2023-05-08T00:59:21.330Z,100.00
2023-05-08T01:01:49.409Z,100.00
2023-05-08T01:04:21.774Z,100.00
2023-05-08T01:06:49.077Z,100.00
2023-05-08T01:09:15.930Z,100.00
2023-05-08T01:11:52.860Z,100.00
2023-05-08T01:14:31.739Z,100.00
2023-05-08T01:17:13.892Z,100.00
2023-05-08T01:19:55.386Z,100.00
2023-05-08T01:22:44.303Z,100.00
2023-05-08T01:25:46.107Z,100.00
2023-05-08T01:28:47.082Z,100.00
2023-05-08T01:31:45.762Z,100.00
2023-05-08T01:34:20.289Z,100.00
2023-05-08T01:36:46.965Z,100.00
2023-05-08T01:39:32.296Z,100.00
2023-05-08T01:42:08.534Z,100.00
2023-05-08T01:44:47.335Z,100.00
2023-05-08T01:47:16.083Z,100.00
2023-05-08T01:49:46.797Z,100.00
2023-05-08T01:52:32.169Z,100.00
2023-05-08T01:55:12.521Z,100.00
2023-05-08T01:57:49.456Z,100.00
2023-05-08T02:00:19.859Z,100.00
2023-05-08T02:02:49.762Z,100.00
2023-05-08T02:05:18.498Z,100.00
2023-05-08T02:07:47.215Z,100.00
2023-05-08T02:10:15.724Z,100.00
2023-05-08T02:12:44.199Z,100.00
2023-05-08T02:15:15.180Z,100.00
2023-05-08T02:17:44.292Z,100.00
2023-05-08T02:20:15.244Z,100.00
2023-05-08T02:22:49.413Z,100.00
2023-05-08T02:25:17.024Z,100.00
2023-05-08T02:27:46.669Z,100.00
2023-05-08T02:30:18.348Z,100.00
2023-05-08T02:32:47.836Z,100.00
2023-05-08T02:35:17.165Z,100.00
2023-05-08T02:37:46.776Z,100.00
2023-05-08T02:40:17.468Z,100.00
2023-05-08T02:42:45.901Z,100.00
2023-05-08T02:45:13.157Z,100.00
2023-05-08T02:47:47.712Z,100.00
2023-05-08T02:50:27.243Z,100.00
2023-05-08T02:53:03.195Z,100.00
2023-05-08T02:55:43.161Z,100.00
2023-05-08T02:58:37.783Z,100.00
2023-05-08T03:01:17.741Z,100.00
2023-05-08T03:03:46.893Z,100.00
2023-05-08T03:06:20.887Z,100.00
2023-05-08T03:08:50.464Z,100.00
2023-05-08T03:11:21.833Z,100.00
2023-05-08T03:13:51.576Z,100.00
2023-05-08T03:16:23.292Z,100.00
2023-05-08T03:18:54.186Z,100.00
2023-05-08T03:21:22.876Z,100.00
2023-05-08T03:23:53.325Z,100.00
2023-05-08T03:26:21.507Z,100.00
2023-05-08T03:28:53.822Z,100.00
2023-05-08T03:31:22.516Z,100.00
2023-05-08T03:33:53.458Z,100.00
2023-05-08T03:36:21.526Z,100.00
2023-05-08T03:38:49.084Z,100.00
2023-05-08T03:41:15.949Z,100.00
2023-05-08T03:43:43.765Z,100.00
2023-05-08T03:46:11.322Z,100.00
2023-05-08T03:48:38.961Z,100.00
2023-05-08T03:51:05.852Z,100.00
2023-05-08T03:53:33.541Z,100.00
2023-05-08T03:56:01.284Z,100.00
2023-05-08T03:58:54.764Z,100.00
2023-05-08T04:01:40.958Z,100.00
2023-05-08T04:04:17.629Z,100.00
2023-05-08T04:06:50.357Z,100.00
2023-05-08T04:09:19.980Z,100.00
2023-05-08T04:12:08.805Z,100.00
2023-05-08T04:15:01.462Z,100.00
2023-05-08T04:17:57.530Z,100.00
2023-05-08T04:20:27.991Z,100.00
2023-05-08T04:22:55.860Z,100.00
2023-05-08T04:25:23.041Z,100.00
2023-05-08T04:27:55.072Z,100.00
2023-05-08T04:30:21.898Z,100.00
2023-05-08T04:32:49.587Z,100.00
2023-05-08T04:35:16.400Z,100.00
2023-05-08T04:37:44.044Z,100.00
2023-05-08T04:40:11.132Z,100.00
2023-05-08T04:42:39.645Z,100.00
2023-05-08T04:45:07.116Z,100.00
2023-05-08T04:47:33.831Z,100.00
2023-05-08T04:50:02.200Z,100.00
2023-05-08T04:52:29.977Z,98.21
2023-05-08T04:54:56.735Z,93.11
2023-05-08T04:57:23.407Z,90.23
2023-05-08T04:59:51.401Z,80.85
2023-05-08T05:02:18.401Z,75.93
2023-05-08T05:04:45.163Z,75.80
2023-05-08T05:07:15.730Z,73.85
2023-05-08T05:09:42.564Z,68.42
2023-05-08T05:12:09.238Z,65.07
2023-05-08T05:14:39.928Z,67.42
2023-05-08T05:17:06.864Z,65.83
2023-05-08T05:19:33.709Z,63.73
2023-05-08T05:22:00.863Z,61.39
2023-05-08T05:24:28.098Z,57.59
2023-05-08T05:26:55.055Z,57.82
2023-05-08T05:29:21.918Z,56.16
2023-05-08T05:31:49.945Z,54.84
2023-05-08T05:34:16.743Z,55.05
2023-05-08T05:36:43.734Z,56.37
2023-05-08T05:39:10.678Z,55.05
2023-05-08T05:41:37.447Z,53.25
2023-05-08T05:44:04.400Z,52.21
2023-05-08T05:46:32.856Z,52.47
2023-05-08T05:48:59.963Z,53.27
2023-05-08T05:51:27.723Z,53.38
2023-05-08T05:53:54.503Z,54.42
2023-05-08T05:56:21.889Z,54.46
2023-05-08T05:58:49.132Z,53.71
2023-05-08T06:01:17.555Z,53.93
2023-05-08T06:03:44.487Z,53.56
2023-05-08T06:06:11.375Z,54.03
2023-05-08T06:08:38.025Z,54.98
2023-05-08T06:11:04.775Z,54.25
2023-05-08T06:13:32.842Z,54.70
2023-05-08T06:15:59.691Z,57.08
2023-05-08T06:18:26.760Z,55.98
2023-05-08T06:21:00.098Z,57.41
2023-05-08T06:23:30.349Z,58.38
2023-05-08T06:25:57.573Z,59.82
2023-05-08T06:28:26.185Z,57.58
2023-05-08T06:30:53.368Z,58.08
2023-05-08T06:33:24.695Z,59.60
2023-05-08T06:35:53.631Z,58.17
2023-05-08T06:38:20.736Z,57.45
2023-05-08T06:40:50.523Z,57.34
2023-05-08T06:43:17.882Z,55.77
2023-05-08T06:45:47.566Z,55.12
2023-05-08T06:48:14.731Z,53.60
2023-05-08T06:50:43.102Z,55.08
2023-05-08T06:53:11.071Z,54.06
2023-05-08T06:55:38.013Z,54.09
2023-05-08T06:58:04.888Z,55.53
2023-05-08T07:00:31.860Z,55.39
2023-05-08T07:02:58.639Z,57.56
2023-05-08T07:05:25.410Z,58.43
2023-05-08T07:07:54.399Z,56.94
2023-05-08T07:10:23.242Z,55.65
2023-05-08T07:12:50.297Z,53.53
2023-05-08T07:15:25.367Z,56.14
2023-05-08T07:17:54.057Z,54.36
2023-05-08T07:20:21.795Z,53.92
2023-05-08T07:22:49.365Z,53.43
2023-05-08T07:25:17.873Z,53.81
2023-05-08T07:27:46.218Z,55.51
2023-05-08T07:30:14.936Z,56.67
2023-05-08T07:32:42.111Z,54.21
2023-05-08T07:35:11.578Z,54.80
2023-05-08T07:37:39.914Z,52.58
2023-05-08T07:40:07.231Z,53.65
2023-05-08T07:42:41.670Z,55.50
2023-05-08T07:45:10.661Z,54.03
2023-05-08T07:47:50.740Z,51.83
2023-05-08T07:50:18.494Z,50.07
2023-05-08T07:52:47.918Z,50.78
2023-05-08T07:55:16.790Z,50.28
2023-05-08T07:57:44.597Z,49.51
2023-05-08T08:00:14.752Z,49.87
2023-05-08T08:02:45.641Z,50.01
2023-05-08T08:05:13.735Z,50.47
2023-05-08T08:07:41.065Z,52.27
2023-05-08T08:10:09.316Z,54.16
2023-05-08T08:12:36.293Z,54.05
2023-05-08T08:15:03.800Z,54.57
2023-05-08T08:17:30.460Z,53.58
2023-05-08T08:19:57.447Z,56.04
2023-05-08T08:22:25.518Z,56.79
2023-05-08T08:24:55.150Z,53.57
2023-05-08T08:27:22.251Z,55.05
2023-05-08T08:29:48.928Z,52.10
2023-05-08T08:32:15.582Z,50.93
2023-05-08T08:34:42.464Z,51.33
2023-05-08T08:37:09.166Z,52.90
2023-05-08T08:39:35.931Z,60.97
2023-05-08T08:42:02.895Z,54.24
2023-05-08T08:44:30.191Z,55.00
2023-05-08T08:47:00.008Z,53.22
2023-05-08T08:49:34.791Z,52.81
2023-05-08T08:52:19.894Z,53.53
2023-05-08T08:54:47.207Z,49.62
2023-05-08T08:57:18.377Z,57.87
2023-05-08T08:59:45.400Z,58.70
2023-05-08T09:02:17.896Z,50.42
2023-05-08T09:04:45.508Z,51.72
2023-05-08T09:07:12.632Z,51.76
2023-05-08T09:09:44.613Z,52.37
2023-05-08T09:12:13.003Z,56.02
2023-05-08T09:14:39.877Z,55.33
2023-05-08T09:17:06.649Z,52.04
2023-05-08T09:19:34.807Z,50.87
2023-05-08T09:22:04.615Z,51.84
2023-05-08T09:24:57.364Z,52.88
2023-05-08T09:27:26.399Z,54.19
2023-05-08T09:30:10.871Z,57.09
2023-05-08T09:32:40.239Z,53.04
2023-05-08T09:35:09.016Z,52.56
2023-05-08T09:37:39.877Z,52.50
2023-05-08T09:40:21.543Z,53.83
2023-05-08T09:42:50.411Z,53.53
2023-05-08T09:45:35.509Z,54.78
2023-05-08T09:48:02.487Z,52.49
2023-05-08T09:50:29.153Z,53.10
2023-05-08T09:52:55.870Z,53.87
2023-05-08T09:55:22.682Z,52.32
2023-05-08T09:57:54.510Z,50.02
2023-05-08T10:00:21.325Z,49.27
2023-05-08T10:03:01.580Z,51.63
2023-05-08T10:05:34.823Z,50.04
2023-05-08T10:08:21.733Z,51.42
2023-05-08T10:10:48.714Z,51.82
2023-05-08T10:13:15.945Z,52.61
2023-05-08T10:15:43.831Z,51.91
2023-05-08T10:18:12.196Z,52.53
2023-05-08T10:20:41.082Z,55.07
2023-05-08T10:23:11.495Z,51.69
2023-05-08T10:25:45.548Z,53.29
2023-05-08T10:28:40.697Z,53.28
2023-05-08T10:31:08.254Z,54.48
2023-05-08T10:33:39.338Z,55.42
2023-05-08T10:36:07.310Z,56.56
2023-05-08T10:38:34.842Z,54.45
2023-05-08T10:41:02.210Z,56.38
2023-05-08T10:43:31.099Z,52.79
2023-05-08T10:46:02.142Z,50.49
2023-05-08T10:49:05.711Z,51.24
2023-05-08T10:51:47.149Z,52.75
2023-05-08T10:54:34.242Z,50.36
2023-05-08T10:57:11.767Z,49.89
2023-05-08T10:59:38.813Z,50.30
2023-05-08T11:02:07.393Z,52.06
2023-05-08T11:04:35.346Z,50.88
2023-05-08T11:07:03.236Z,47.77
2023-05-08T11:09:45.220Z,46.92
2023-05-08T11:12:20.708Z,46.22
2023-05-08T11:14:57.562Z,46.07
2023-05-08T11:17:25.596Z,46.02
2023-05-08T11:19:58.226Z,46.91
2023-05-08T11:22:34.731Z,46.32
2023-05-08T11:25:09.251Z,46.58
2023-05-08T11:27:51.319Z,48.75
2023-05-08T11:30:34.979Z,48.23
2023-05-08T11:35:51.800Z,47.67
2023-05-08T11:38:24.018Z,44.79
2023-05-08T11:40:59.895Z,46.75
2023-05-08T11:43:36.893Z,43.04
2023-05-08T11:46:06.716Z,43.39
2023-05-08T11:48:34.407Z,42.58
2023-05-08T11:51:02.474Z,41.76
2023-05-08T11:53:33.786Z,41.88
2023-05-08T11:56:01.647Z,42.02
2023-05-08T11:58:28.878Z,42.82
2023-05-08T12:00:58.869Z,41.73
2023-05-08T12:03:26.824Z,40.91
2023-05-08T12:05:58.359Z,41.55
2023-05-08T12:08:26.713Z,40.78
2023-05-08T12:11:00.567Z,41.93
2023-05-08T12:13:39.049Z,42.49
2023-05-08T12:16:22.354Z,44.12
2023-05-08T12:18:53.878Z,41.38
2023-05-08T12:21:21.662Z,41.89
2023-05-08T12:23:49.417Z,42.86
2023-05-08T12:26:16.348Z,41.57
2023-05-08T12:28:49.868Z,41.52
2023-05-08T12:31:19.160Z,43.42
2023-05-08T12:33:47.044Z,41.34
2023-05-08T12:36:19.999Z,41.75
2023-05-08T12:38:47.688Z,40.54
2023-05-08T12:41:28.592Z,42.99
2023-05-08T12:43:57.632Z,41.18
2023-05-08T12:46:25.818Z,41.92
2023-05-08T12:49:02.171Z,41.46
2023-05-08T12:51:31.974Z,40.71
2023-05-08T12:54:13.569Z,39.86
2023-05-08T12:59:47.216Z,39.66
2023-05-08T13:02:21.297Z,39.26
2023-05-08T13:05:03.906Z,39.86
2023-05-08T13:07:35.164Z,41.64
2023-05-08T13:10:06.126Z,41.68
2023-05-08T13:12:39.101Z,42.78
2023-05-08T13:15:07.231Z,44.23
2023-05-08T13:17:38.195Z,45.50
2023-05-08T13:20:10.653Z,50.64
2023-05-08T13:22:37.492Z,54.44
2023-05-08T13:25:04.644Z,57.95
2023-05-08T13:27:31.351Z,61.54
2023-05-08T13:29:58.026Z,63.76
2023-05-08T13:32:24.876Z,64.55
2023-05-08T13:34:53.148Z,66.15
2023-05-08T13:37:26.916Z,68.79
2023-05-08T13:39:53.759Z,70.20
2023-05-08T13:42:20.822Z,71.00
2023-05-08T13:44:47.616Z,70.10
2023-05-08T13:47:14.478Z,69.33
2023-05-08T13:49:41.149Z,68.64
2023-05-08T13:52:07.776Z,68.92
2023-05-08T13:54:34.518Z,71.56
2023-05-08T13:57:02.741Z,72.20
2023-05-08T13:59:31.536Z,75.96
2023-05-08T14:01:58.572Z,76.34
2023-05-08T14:04:25.464Z,78.75
2023-05-08T14:06:52.268Z,81.63
2023-05-08T14:09:19.251Z,84.03
2023-05-08T14:11:45.970Z,85.25
2023-05-08T14:14:12.817Z,85.82
2023-05-08T14:16:39.863Z,84.99
2023-05-08T14:19:06.707Z,85.29
2023-05-08T14:21:34.799Z,85.20
2023-05-08T14:24:02.658Z,84.35
2023-05-08T14:26:29.405Z,83.92
2023-05-08T14:28:56.292Z,82.70
2023-05-08T14:31:23.526Z,83.55
2023-05-08T14:33:50.282Z,83.56
2023-05-08T14:36:17.105Z,83.69
2023-05-08T14:38:44.163Z,84.55
2023-05-08T14:41:10.942Z,86.18
2023-05-08T14:43:37.773Z,91.08
2023-05-08T14:46:04.980Z,95.96
2023-05-08T14:48:31.805Z,99.60
2023-05-08T14:50:58.824Z,99.53
2023-05-08T14:53:25.800Z,100.00
2023-05-08T14:55:53.107Z,100.00
2023-05-08T14:58:20.068Z,100.00
2023-05-08T15:00:47.154Z,100.00
2023-05-08T15:03:14.134Z,100.00
2023-05-08T15:05:46.139Z,100.00
2023-05-08T15:08:13.677Z,100.00
2023-05-08T15:10:43.834Z,100.00
2023-05-08T15:13:11.063Z,100.00
2023-05-08T15:15:41.425Z,100.00
2023-05-08T15:18:20.342Z,100.00
2023-05-08T15:21:00.113Z,100.00
2023-05-08T15:23:31.783Z,100.00
2023-05-08T15:26:08.435Z,100.00
2023-05-08T15:28:41.525Z,100.00
2023-05-08T15:31:09.200Z,100.00
2023-05-08T15:33:36.804Z,100.00
2023-05-08T15:36:14.185Z,100.00
2023-05-08T15:38:42.560Z,100.00
2023-05-08T15:41:15.748Z,100.00
2023-05-08T15:43:48.152Z,100.00
2023-05-08T15:46:18.851Z,100.00
2023-05-08T15:48:54.804Z,100.00
2023-05-08T15:51:26.882Z,100.00
2023-05-08T15:53:54.598Z,100.00
2023-05-08T15:56:26.330Z,100.00
2023-05-08T15:58:56.718Z,100.00
2023-05-08T16:01:27.116Z,100.00
2023-05-08T16:04:04.241Z,100.00
2023-05-08T16:06:32.933Z,100.00
2023-05-08T16:09:03.879Z,100.00
2023-05-08T16:11:37.631Z,100.00
2023-05-08T16:14:04.482Z,100.00
2023-05-08T16:16:31.512Z,98.90
2023-05-08T16:18:58.372Z,99.63
2023-05-08T16:21:27.575Z,100.00
2023-05-08T16:23:58.979Z,100.00
2023-05-08T16:26:26.502Z,100.00
2023-05-08T16:28:53.427Z,100.00
2023-05-08T16:31:20.287Z,98.53
2023-05-08T16:33:46.987Z,99.81
2023-05-08T16:36:13.744Z,100.00
2023-05-08T16:38:40.581Z,100.00
2023-05-08T16:41:10.158Z,100.00
2023-05-08T16:43:37.690Z,100.00
2023-05-08T16:46:08.463Z,100.00
2023-05-08T16:48:35.730Z,100.00
2023-05-08T16:51:02.839Z,100.00
2023-05-08T16:53:29.680Z,100.00
2023-05-08T16:55:56.542Z,100.00
2023-05-08T16:58:23.429Z,100.00
2023-05-08T17:00:50.235Z,100.00
2023-05-08T17:03:17.212Z,100.00
2023-05-08T17:05:44.121Z,100.00
2023-05-08T17:08:12.168Z,100.00
2023-05-08T17:10:39.759Z,100.00
2023-05-08T17:13:08.218Z,100.00
2023-05-08T17:15:35.105Z,100.00
2023-05-08T17:18:04.879Z,100.00
2023-05-08T17:20:32.579Z,100.00
2023-05-08T17:22:59.589Z,100.00
2023-05-08T17:25:27.030Z,100.00
2023-05-08T17:27:53.844Z,100.00
2023-05-08T17:30:20.854Z,100.00
2023-05-08T17:32:51.802Z,100.00
2023-05-08T17:35:18.943Z,100.00
2023-05-08T17:37:46.054Z,100.00
2023-05-08T17:40:13.359Z,100.00
2023-05-08T17:42:42.590Z,100.00
2023-05-08T17:45:12.292Z,100.00
2023-05-08T17:47:42.279Z,100.00
2023-05-08T17:50:09.985Z,100.00
2023-05-08T17:52:37.332Z,100.00
2023-05-08T17:55:04.278Z,100.00
2023-05-08T17:57:31.213Z,100.00
2023-05-08T17:59:58.034Z,100.00
2023-05-08T18:02:25.026Z,100.00
2023-05-08T18:04:52.070Z,100.00
2023-05-08T18:07:18.800Z,100.00
2023-05-08T18:09:45.620Z,100.00
2023-05-08T18:12:12.350Z,100.00
2023-05-08T18:14:39.126Z,100.00
2023-05-08T18:17:07.575Z,100.00
2023-05-08T18:19:34.405Z,100.00
2023-05-08T18:22:01.334Z,100.00
2023-05-08T18:24:29.568Z,100.00
2023-05-08T18:26:56.367Z,100.00
2023-05-08T18:29:23.694Z,100.00
2023-05-08T18:31:50.540Z,100.00
2023-05-08T18:34:20.078Z,100.00
2023-05-08T18:36:46.861Z,100.00
2023-05-08T18:39:13.572Z,100.00
2023-05-08T18:41:40.404Z,100.00
2023-05-08T18:44:07.295Z,100.00
2023-05-08T18:46:36.428Z,100.00
2023-05-08T18:49:05.617Z,100.00
2023-05-08T18:51:32.335Z,100.00
2023-05-08T18:53:59.826Z,100.00
2023-05-08T18:56:26.574Z,100.00
2023-05-08T18:58:53.289Z,100.00
2023-05-08T19:01:21.472Z,100.00
2023-05-08T19:03:48.502Z,100.00
2023-05-08T19:06:15.894Z,100.00
2023-05-08T19:08:44.102Z,100.00
2023-05-08T19:11:10.898Z,100.00
2023-05-08T19:13:44.244Z,100.00
2023-05-08T19:16:12.348Z,100.00
2023-05-08T19:18:39.174Z,100.00
2023-05-08T19:21:06.863Z,100.00
2023-05-08T19:23:33.727Z,100.00
2023-05-08T19:26:00.546Z,100.00
2023-05-08T19:28:27.306Z,100.00
2023-05-08T19:30:54.283Z,100.00
2023-05-08T19:33:24.193Z,100.00
2023-05-08T19:35:54.697Z,100.00
2023-05-08T19:38:21.549Z,100.00
2023-05-08T19:40:56.994Z,100.00
2023-05-08T19:43:28.119Z,100.00
2023-05-08T19:45:55.710Z,100.00
2023-05-08T19:48:22.868Z,100.00
2023-05-08T19:50:51.374Z,100.00
2023-05-08T19:53:23.785Z,100.00
2023-05-08T19:55:50.694Z,100.00
2023-05-08T19:58:20.900Z,100.00
2023-05-08T20:03:44.186Z,100.00
2023-05-08T20:06:13.962Z,100.00
2023-05-08T20:08:41.147Z,100.00
2023-05-08T20:11:11.835Z,100.00
2023-05-08T20:13:39.379Z,100.00
2023-05-08T20:16:07.017Z,100.00
2023-05-08T20:18:35.339Z,100.00
2023-05-08T20:21:02.666Z,100.00
2023-05-08T20:23:31.477Z,100.00
2023-05-08T20:25:58.814Z,100.00
2023-05-08T20:28:26.340Z,100.00
2023-05-08T20:30:57.675Z,100.00
2023-05-08T20:33:24.375Z,100.00
2023-05-08T20:35:52.070Z,100.00
2023-05-08T20:38:19.120Z,100.00
2023-05-08T20:40:46.334Z,100.00
2023-05-08T20:43:13.018Z,100.00
2023-05-08T20:45:39.682Z,100.00
2023-05-08T20:48:06.462Z,100.00
2023-05-08T20:50:33.348Z,100.00
2023-05-08T20:53:01.509Z,100.00
2023-05-08T20:55:28.348Z,100.00
2023-05-08T20:57:54.960Z,100.00
2023-05-08T21:00:21.630Z,100.00
2023-05-08T21:02:48.400Z,100.00
2023-05-08T21:05:15.440Z,100.00
2023-05-08T21:07:42.587Z,100.00
2023-05-08T21:10:09.658Z,100.00
2023-05-08T21:12:36.611Z,100.00
2023-05-08T21:15:10.159Z,100.00
2023-05-08T21:17:38.100Z,100.00
2023-05-08T21:20:06.750Z,100.00
2023-05-08T21:26:21.141Z,100.00
2023-05-08T21:29:09.223Z,100.00
2023-05-08T21:35:12.227Z,100.00
2023-05-08T21:37:39.814Z,100.00
2023-05-08T21:40:07.622Z,100.00
2023-05-08T21:42:35.641Z,100.00
2023-05-08T21:45:12.413Z,100.00
2023-05-08T21:52:58.108Z,100.00
2023-05-08T21:55:25.222Z,100.00
2023-05-08T21:57:52.084Z,100.00
2023-05-08T22:00:19.268Z,100.00
2023-05-08T22:02:46.032Z,100.00
2023-05-08T22:05:13.153Z,100.00
2023-05-08T22:07:40.093Z,100.00
2023-05-08T22:10:09.320Z,100.00
2023-05-08T22:12:36.225Z,100.00
2023-05-08T22:15:07.535Z,100.00
2023-05-08T22:17:39.617Z,100.00
2023-05-08T22:20:08.527Z,100.00
2023-05-08T22:22:35.161Z,100.00
2023-05-08T22:25:02.089Z,100.00
2023-05-08T22:27:28.743Z,100.00
2023-05-08T22:29:55.714Z,100.00
2023-05-08T22:32:22.937Z,100.00
2023-05-08T22:34:50.179Z,100.00
2023-05-08T22:37:20.067Z,100.00
2023-05-08T22:39:47.103Z,100.00
2023-05-08T22:42:14.550Z,100.00
2023-05-08T22:44:41.968Z,100.00
2023-05-08T22:47:09.505Z,100.00
2023-05-08T22:49:36.540Z,100.00
2023-05-08T22:52:03.181Z,100.00
2023-05-08T22:54:30.103Z,100.00
2023-05-08T22:56:56.979Z,100.00
2023-05-08T22:59:25.294Z,100.00
2023-05-08T23:01:52.389Z,100.00
2023-05-08T23:04:19.289Z,100.00
2023-05-08T23:06:46.037Z,100.00
2023-05-08T23:09:12.635Z,100.00
2023-05-08T23:11:39.381Z,100.00
2023-05-08T23:14:06.114Z,100.00
2023-05-08T23:16:32.869Z,100.00
2023-05-08T23:18:59.573Z,100.00
2023-05-08T23:21:26.751Z,100.00
2023-05-08T23:23:54.332Z,100.00
2023-05-08T23:26:21.557Z,100.00
2023-05-08T23:28:48.825Z,100.00
2023-05-08T23:31:17.043Z,100.00
2023-05-08T23:33:43.832Z,100.00
2023-05-08T23:36:10.558Z,100.00
2023-05-08T23:38:37.334Z,100.00
2023-05-08T23:41:04.076Z,100.00
2023-05-08T23:43:30.856Z,100.00
2023-05-08T23:45:58.191Z,100.00
2023-05-08T23:48:25.884Z,100.00
2023-05-08T23:50:52.550Z,100.00
2023-05-08T23:53:19.832Z,100.00
2023-05-08T23:55:49.855Z,100.00
2023-05-08T23:58:18.387Z,100.00
